createdAt,value
2018-11-02T00:01:34.532Z,94.30
2018-11-02T00:04:04.990Z,94.30
2018-11-02T00:06:35.811Z,94.30
2018-11-02T00:09:07.600Z,94.30
2018-11-02T00:11:38.392Z,94.20
2018-11-02T00:14:08.961Z,94.30
2018-11-02T00:16:39.377Z,94.20
2018-11-02T00:19:09.877Z,94.60
2018-11-02T00:21:40.386Z,94.20
2018-11-02T00:24:10.954Z,94.30
2018-11-02T00:26:41.515Z,94.30
2018-11-02T00:29:11.950Z,94.50
2018-11-02T00:31:42.564Z,94.30
2018-11-02T00:34:13.151Z,94.40
2018-11-02T00:36:47.537Z,94.40
2018-11-02T00:39:18.055Z,94.50
2018-11-02T00:41:48.878Z,94.50
2018-11-02T00:44:19.444Z,94.40
2018-11-02T00:46:50.008Z,94.50
2018-11-02T00:49:20.532Z,94.40
2018-11-02T00:51:51.137Z,94.50
2018-11-02T00:54:21.496Z,94.70
2018-11-02T00:56:51.884Z,94.60
2018-11-02T00:59:22.224Z,94.60
2018-11-02T01:01:52.944Z,94.60
2018-11-02T01:04:23.343Z,94.60
2018-11-02T01:06:53.839Z,94.60
2018-11-02T01:09:24.249Z,94.70
2018-11-02T01:11:54.681Z,94.50
2018-11-02T01:14:25.199Z,94.50
2018-11-02T01:16:55.782Z,94.40
2018-11-02T01:19:30.326Z,94.30
2018-11-02T01:22:01.547Z,94.20
2018-11-02T01:24:32.240Z,94.20
2018-11-02T01:27:02.879Z,94.20
2018-11-02T01:29:33.417Z,94.00
2018-11-02T01:32:03.915Z,93.90
2018-11-02T01:34:34.420Z,93.70
2018-11-02T01:37:04.971Z,93.70
2018-11-02T01:39:35.411Z,93.70
2018-11-02T01:42:06.071Z,93.60
2018-11-02T01:44:36.602Z,93.60
2018-11-02T01:47:07.517Z,93.50
2018-11-02T01:49:38.011Z,93.50
2018-11-02T01:52:09.297Z,93.50
2018-11-02T01:54:39.736Z,93.50
2018-11-02T01:57:10.320Z,93.50
2018-11-02T01:59:40.770Z,93.60
2018-11-02T02:02:11.317Z,93.60
2018-11-02T02:04:41.858Z,93.60
2018-11-02T02:07:12.444Z,93.60
2018-11-02T02:09:42.960Z,93.50
2018-11-02T02:12:13.552Z,93.50
2018-11-02T02:14:43.964Z,93.40
2018-11-02T02:17:14.471Z,93.40
2018-11-02T02:19:44.942Z,93.30
2018-11-02T02:22:15.496Z,93.30
2018-11-02T02:24:46.006Z,93.20
2018-11-02T02:27:16.530Z,93.00
2018-11-02T02:29:47.430Z,93.00
2018-11-02T02:32:17.850Z,93.00
2018-11-02T02:34:48.341Z,93.00
2018-11-02T02:37:18.821Z,92.90
2018-11-02T02:39:49.346Z,92.90
2018-11-02T02:42:19.861Z,92.80
2018-11-02T02:44:50.398Z,92.80
2018-11-02T02:47:20.943Z,92.70
2018-11-02T02:49:51.364Z,92.70
2018-11-02T02:52:21.978Z,92.60
2018-11-02T02:54:52.469Z,92.50
2018-11-02T02:57:22.961Z,92.50
2018-11-02T02:59:53.434Z,92.50
2018-11-02T03:02:24.033Z,92.40
2018-11-02T03:04:54.437Z,92.40
2018-11-02T03:07:25.295Z,92.40
2018-11-02T03:09:55.780Z,92.40
2018-11-02T03:12:26.291Z,92.30
2018-11-02T03:14:56.698Z,92.30
2018-11-02T03:17:27.219Z,92.30
2018-11-02T03:19:57.661Z,92.30
2018-11-02T03:22:28.192Z,92.30
2018-11-02T03:24:58.737Z,92.30
2018-11-02T03:27:29.318Z,92.30
2018-11-02T03:29:59.919Z,92.30
2018-11-02T03:32:30.430Z,92.30
2018-11-02T03:35:00.834Z,92.30
2018-11-02T03:37:31.335Z,92.30
2018-11-02T03:40:01.828Z,92.30
2018-11-02T03:42:32.381Z,92.60
2018-11-02T03:45:02.804Z,92.30
2018-11-02T03:47:33.307Z,92.20
2018-11-02T03:50:03.832Z,92.20
2018-11-02T03:52:34.404Z,92.20
2018-11-02T03:55:04.890Z,92.20
2018-11-02T03:57:35.586Z,92.20
2018-11-02T04:00:07.335Z,92.10
2018-11-02T04:02:38.039Z,92.20
2018-11-02T04:05:09.233Z,92.20
2018-11-02T04:07:39.753Z,92.10
2018-11-02T04:10:11.590Z,92.10
2018-11-02T04:12:42.987Z,92.10
2018-11-02T04:15:13.477Z,92.10
2018-11-02T04:17:44.294Z,92.40
2018-11-02T04:20:15.137Z,92.10
2018-11-02T04:22:45.560Z,92.10
2018-11-02T04:25:15.971Z,92.10
2018-11-02T04:27:46.444Z,92.10
2018-11-02T04:30:16.912Z,92.10
2018-11-02T04:32:47.413Z,92.10
2018-11-02T04:35:17.884Z,92.00
2018-11-02T04:37:48.432Z,92.00
2018-11-02T04:40:18.890Z,92.00
2018-11-02T04:42:49.433Z,91.90
2018-11-02T04:45:25.102Z,92.00
2018-11-02T04:47:55.594Z,92.00
2018-11-02T04:50:26.060Z,92.10
2018-11-02T04:52:57.053Z,92.20
2018-11-02T04:55:27.547Z,92.20
2018-11-02T04:57:58.021Z,92.40
2018-11-02T05:00:28.510Z,92.30
2018-11-02T05:02:59.076Z,92.40
2018-11-02T05:05:29.616Z,92.50
2018-11-02T05:08:00.218Z,92.70
2018-11-02T05:10:30.730Z,92.60
2018-11-02T05:13:01.500Z,92.70
2018-11-02T05:15:32.085Z,92.60
2018-11-02T05:18:02.510Z,92.70
2018-11-02T05:20:32.814Z,92.80
2018-11-02T05:23:03.184Z,92.70
2018-11-02T05:25:33.591Z,92.90
2018-11-02T05:28:03.950Z,92.60
2018-11-02T05:30:34.609Z,92.60
2018-11-02T05:33:05.046Z,92.80
2018-11-02T05:35:35.498Z,92.80
2018-11-02T05:38:05.846Z,92.90
2018-11-02T05:40:36.241Z,93.10
2018-11-02T05:43:06.668Z,93.00
2018-11-02T05:45:37.138Z,93.00
2018-11-02T05:48:07.912Z,93.00
2018-11-02T05:50:38.359Z,93.10
2018-11-02T05:53:09.326Z,93.20
2018-11-02T05:55:40.091Z,93.20
2018-11-02T05:58:10.697Z,93.10
2018-11-02T06:00:41.188Z,93.20
2018-11-02T06:03:11.749Z,93.20
2018-11-02T06:05:42.326Z,93.20
2018-11-02T06:08:13.325Z,93.10
2018-11-02T06:10:44.106Z,93.40
2018-11-02T06:13:15.279Z,93.60
2018-11-02T06:15:46.972Z,93.70
2018-11-02T06:18:18.081Z,93.60
2018-11-02T06:20:49.550Z,93.50
2018-11-02T06:23:21.118Z,93.50
2018-11-02T06:25:52.668Z,93.60
2018-11-02T06:28:24.000Z,93.70
2018-11-02T06:30:55.902Z,93.60
2018-11-02T06:33:27.145Z,93.90
2018-11-02T06:35:58.743Z,94.00
2018-11-02T06:38:29.929Z,93.90
2018-11-02T06:41:01.311Z,94.00
2018-11-02T06:43:32.555Z,94.00
2018-11-02T06:46:04.009Z,93.90
2018-11-02T06:48:35.618Z,93.90
2018-11-02T06:51:11.967Z,94.00
2018-11-02T06:53:42.632Z,94.00
2018-11-02T06:56:13.194Z,94.00
2018-11-02T06:58:43.656Z,93.90
2018-11-02T07:01:14.209Z,94.10
2018-11-02T07:03:44.656Z,94.00
2018-11-02T07:06:15.407Z,94.10
2018-11-02T07:08:46.058Z,94.00
2018-11-02T07:11:16.621Z,94.10
2018-11-02T07:13:47.007Z,94.20
2018-11-02T07:16:17.461Z,93.90
2018-11-02T07:18:48.023Z,94.10
2018-11-02T07:21:18.570Z,94.30
2018-11-02T07:23:49.121Z,94.00
2018-11-02T07:26:19.600Z,93.90
2018-11-02T07:28:50.073Z,94.10
2018-11-02T07:31:21.277Z,94.00
2018-11-02T07:33:51.830Z,94.20
2018-11-02T07:36:22.466Z,94.00
2018-11-02T07:38:52.937Z,94.00
2018-11-02T07:41:24.471Z,94.00
2018-11-02T07:43:55.281Z,94.00
2018-11-02T12:19:11.830Z,91.00
2018-11-02T12:21:42.354Z,90.50
2018-11-02T12:24:12.933Z,90.20
2018-11-02T12:26:43.662Z,89.30
2018-11-02T12:29:14.578Z,88.90
2018-11-02T12:31:45.198Z,88.40
2018-11-02T12:34:15.792Z,88.00
2018-11-02T12:36:46.309Z,87.30
2018-11-02T12:39:16.849Z,86.70
2018-11-02T12:41:47.580Z,87.10
2018-11-02T12:44:18.421Z,86.70
2018-11-02T12:46:49.353Z,86.00
2018-11-02T12:49:20.382Z,85.60
2018-11-02T12:51:51.131Z,86.20
2018-11-02T12:54:21.941Z,86.30
2018-11-02T12:56:52.756Z,86.20
2018-11-02T12:59:23.459Z,86.30
2018-11-02T13:01:54.191Z,85.90
2018-11-02T13:04:24.883Z,86.10
2018-11-02T13:06:55.579Z,85.90
2018-11-02T13:09:26.319Z,85.60
2018-11-02T13:11:56.989Z,85.20
2018-11-02T13:14:27.767Z,85.00
2018-11-02T13:17:00.086Z,84.80
2018-11-02T13:19:30.847Z,85.00
2018-11-02T13:22:01.612Z,84.20
2018-11-02T13:24:32.360Z,84.10
2018-11-02T13:27:03.159Z,84.20
2018-11-02T13:29:33.884Z,84.00
2018-11-02T13:32:04.800Z,83.30
2018-11-02T13:34:35.518Z,83.80
2018-11-02T13:37:07.439Z,85.00
2018-11-02T13:39:39.211Z,84.90
2018-11-02T13:42:09.859Z,84.90
2018-11-02T13:44:40.650Z,84.70
2018-11-02T13:47:11.311Z,84.60
2018-11-02T13:49:42.005Z,84.60
2018-11-02T13:52:12.857Z,84.60
2018-11-02T13:54:53.006Z,83.50
2018-11-02T13:57:23.959Z,83.00
2018-11-02T13:59:54.540Z,83.50
2018-11-02T14:02:25.342Z,83.50
2018-11-02T14:04:56.355Z,83.40
2018-11-02T14:07:27.183Z,83.30
2018-11-02T14:09:58.292Z,83.00
2018-11-02T14:12:29.375Z,82.60
2018-11-02T14:15:01.020Z,82.80
2018-11-02T14:17:32.177Z,82.30
2018-11-02T14:20:02.750Z,82.20
2018-11-02T14:22:33.643Z,82.50
2018-11-02T14:25:04.247Z,82.40
2018-11-02T14:27:41.332Z,82.40
2018-11-02T14:30:14.958Z,81.90
2018-11-02T14:32:47.392Z,81.70
2018-11-02T14:35:18.184Z,81.30
2018-11-02T14:37:55.831Z,81.80
2018-11-02T14:40:26.614Z,81.00
2018-11-02T14:42:58.061Z,80.70
2018-11-02T14:45:30.058Z,80.00
2018-11-02T14:48:00.916Z,80.10
2018-11-02T14:50:31.685Z,79.60
2018-11-02T14:53:02.557Z,80.10
2018-11-02T14:55:33.397Z,79.60
2018-11-02T14:58:04.125Z,79.40
2018-11-02T15:00:34.845Z,79.70
2018-11-02T15:03:05.727Z,79.60
2018-11-02T15:05:36.403Z,79.70
2018-11-02T15:08:07.495Z,79.80
2018-11-02T15:10:38.199Z,79.60
2018-11-02T15:13:09.093Z,79.30
2018-11-02T15:15:39.800Z,79.20
2018-11-02T15:18:10.417Z,79.00
2018-11-02T15:20:41.107Z,78.60
2018-11-02T15:23:11.604Z,78.40
2018-11-02T15:25:42.278Z,78.00
2018-11-02T15:28:19.408Z,77.60
2018-11-02T15:30:54.822Z,77.80
2018-11-02T15:33:26.116Z,77.60
2018-11-02T15:35:57.359Z,77.30
2018-11-02T15:38:27.823Z,77.20
2018-11-02T15:40:58.347Z,76.40
2018-11-02T15:43:30.630Z,76.50
2018-11-02T15:46:01.068Z,76.70
2018-11-02T15:48:32.932Z,76.60
2018-11-02T15:51:03.341Z,76.50
2018-11-02T15:53:34.304Z,76.50
2018-11-02T15:56:04.751Z,76.80
2018-11-02T15:58:35.165Z,77.10
2018-11-02T16:01:06.064Z,77.30
2018-11-02T16:03:36.481Z,77.50
2018-11-02T16:06:07.098Z,77.40
2018-11-02T16:08:38.133Z,77.40
2018-11-02T16:11:08.782Z,77.50
2018-11-02T16:13:39.366Z,77.50
2018-11-02T16:16:09.760Z,77.50
2018-11-02T16:18:40.212Z,77.60
2018-11-02T16:21:10.826Z,77.70
2018-11-02T16:23:41.399Z,77.80
2018-11-02T16:26:12.013Z,77.80
2018-11-02T16:28:43.467Z,77.90
2018-11-02T16:31:13.890Z,77.80
2018-11-02T16:33:44.444Z,77.80
2018-11-02T16:36:15.037Z,77.70
2018-11-02T16:38:45.444Z,77.90
2018-11-02T16:41:15.967Z,77.70
2018-11-02T16:43:46.543Z,77.80
2018-11-02T16:46:16.935Z,77.60
2018-11-02T16:48:47.568Z,77.50
2018-11-02T16:51:22.390Z,77.40
2018-11-02T16:53:52.781Z,77.50
2018-11-02T16:56:23.200Z,77.50
2018-11-02T16:58:57.162Z,77.70
2018-11-02T17:01:27.672Z,77.60
2018-11-02T17:03:58.095Z,77.80
2018-11-02T17:06:28.595Z,77.90
2018-11-02T17:08:59.104Z,77.60
2018-11-02T17:11:29.794Z,77.70
2018-11-02T17:14:02.376Z,77.60
2018-11-02T17:16:34.123Z,77.50
2018-11-02T17:19:05.922Z,77.70
2018-11-02T17:21:36.411Z,77.80
2018-11-02T17:24:07.291Z,77.90
2018-11-02T17:26:37.723Z,78.20
2018-11-02T17:29:11.231Z,79.50
2018-11-02T17:31:43.480Z,79.60
2018-11-02T17:34:16.371Z,79.70
2018-11-02T17:36:47.496Z,79.70
2018-11-02T17:39:19.110Z,79.70
2018-11-02T17:41:51.926Z,79.80
2018-11-02T17:44:34.145Z,79.90
2018-11-02T17:47:05.470Z,79.90
2018-11-02T17:49:40.446Z,80.10
2018-11-02T17:52:12.924Z,79.90
2018-11-02T17:54:43.508Z,80.00
2018-11-02T17:57:15.215Z,80.10
2018-11-02T17:59:46.082Z,80.20
2018-11-02T18:02:16.971Z,80.30
2018-11-02T18:04:48.041Z,80.50
2018-11-02T18:07:18.866Z,80.50
2018-11-02T18:09:49.970Z,80.50
2018-11-02T18:12:20.871Z,80.60
2018-11-02T18:14:51.841Z,80.70
2018-11-02T18:17:22.661Z,80.70
2018-11-02T18:19:53.371Z,80.70
2018-11-02T18:22:24.486Z,80.80
2018-11-02T18:24:55.682Z,81.00
2018-11-02T18:27:26.946Z,80.80
2018-11-02T18:29:58.124Z,81.70
2018-11-02T18:32:29.424Z,81.00
2018-11-02T18:35:01.101Z,80.80
2018-11-02T18:37:33.049Z,80.90
2018-11-02T18:40:05.032Z,80.90
2018-11-02T18:42:36.098Z,81.00
2018-11-02T18:45:08.781Z,80.90
2018-11-02T18:47:44.478Z,80.90
2018-11-02T18:50:19.114Z,80.90
2018-11-02T18:52:57.001Z,80.90
2018-11-02T18:55:28.095Z,80.80
2018-11-02T18:58:00.124Z,81.00
2018-11-02T19:00:34.160Z,80.90
2018-11-02T19:03:05.364Z,80.90
2018-11-02T19:05:36.716Z,80.70
2018-11-02T19:08:08.439Z,80.60
2018-11-02T19:10:39.862Z,80.70
2018-11-02T19:13:11.241Z,80.90
2018-11-02T19:15:42.557Z,81.00
2018-11-02T19:18:13.850Z,81.10
2018-11-02T19:20:45.277Z,81.30
2018-11-02T19:23:20.189Z,81.30
2018-11-02T19:25:51.753Z,81.50
2018-11-02T19:28:22.782Z,81.70
2018-11-02T19:30:54.808Z,81.80
2018-11-02T19:33:25.954Z,82.00
2018-11-02T19:35:57.279Z,82.10
2018-11-02T19:38:28.563Z,82.10
2018-11-02T19:40:59.794Z,82.20
2018-11-02T19:43:31.211Z,82.10
2018-11-02T19:46:02.432Z,82.00
2018-11-02T19:48:33.797Z,82.10
2018-11-02T19:51:06.500Z,82.10
2018-11-02T19:53:38.065Z,82.20
2018-11-02T19:56:09.383Z,82.20
2018-11-02T19:58:40.192Z,82.20
2018-11-02T20:01:11.791Z,82.30
2018-11-02T20:03:42.987Z,82.40
2018-11-02T20:06:14.266Z,82.40
2018-11-02T20:08:51.818Z,82.50
2018-11-02T20:11:26.600Z,82.60
2018-11-02T20:13:57.697Z,82.60
2018-11-02T20:16:29.002Z,82.70
2018-11-02T20:19:00.139Z,82.70
2018-11-02T20:21:30.842Z,82.70
2018-11-02T20:24:01.815Z,82.50
2018-11-02T20:26:33.554Z,82.50
2018-11-02T20:29:04.545Z,82.50
2018-11-02T20:31:35.669Z,82.50
2018-11-02T20:34:07.563Z,82.40
2018-11-02T20:36:39.508Z,82.60
2018-11-02T20:39:12.571Z,82.70
2018-11-02T20:41:43.467Z,82.50
2018-11-02T20:44:17.859Z,82.50
2018-11-02T20:46:48.686Z,82.70
2018-11-02T20:49:20.768Z,82.80
2018-11-02T20:51:52.424Z,82.90
2018-11-02T20:54:23.556Z,82.90
2018-11-02T20:56:54.818Z,82.80
2018-11-02T20:59:25.577Z,82.80
2018-11-02T21:01:57.155Z,82.90
2018-11-02T21:04:28.096Z,83.10
2018-11-02T21:06:59.346Z,83.00
2018-11-02T21:09:30.592Z,83.20
2018-11-02T21:12:02.431Z,83.30
2018-11-02T21:14:33.406Z,83.30
2018-11-02T21:17:04.081Z,83.20
2018-11-02T21:19:34.778Z,83.20
2018-11-02T21:22:09.726Z,83.20
2018-11-02T21:24:40.672Z,83.20
2018-11-02T21:27:11.325Z,82.90
2018-11-02T21:29:49.704Z,82.90
2018-11-02T21:32:20.366Z,83.00
2018-11-02T21:34:50.910Z,83.00
2018-11-02T21:37:21.747Z,83.10
2018-11-02T21:39:52.455Z,83.20
2018-11-02T21:42:23.100Z,83.10
2018-11-02T21:44:53.694Z,83.20
2018-11-02T21:47:24.505Z,84.10
2018-11-02T21:49:55.238Z,83.20
2018-11-02T21:52:25.925Z,83.10
2018-11-02T21:54:56.520Z,83.20
2018-11-02T21:57:27.083Z,83.50
2018-11-02T21:59:57.653Z,83.50
2018-11-02T22:02:28.263Z,83.90
2018-11-02T22:04:58.772Z,84.20
2018-11-02T22:07:29.579Z,83.70
2018-11-02T22:10:00.107Z,83.80
2018-11-02T22:12:32.885Z,83.80
2018-11-02T22:15:03.516Z,84.00
2018-11-02T22:17:36.365Z,84.00
2018-11-02T22:20:12.494Z,84.10
2018-11-02T22:22:43.418Z,84.20
2018-11-02T22:25:14.808Z,84.30
2018-11-02T22:27:45.360Z,84.30
2018-11-02T22:30:16.953Z,84.30
2018-11-02T22:32:47.404Z,84.40
2018-11-02T22:35:28.147Z,84.50
2018-11-02T22:37:58.772Z,84.50
2018-11-02T22:40:29.533Z,84.40
2018-11-02T22:43:00.010Z,84.40
2018-11-02T22:45:30.367Z,84.40
2018-11-02T22:48:05.906Z,84.40
2018-11-02T22:50:36.529Z,84.50
2018-11-02T22:53:07.286Z,84.50
2018-11-02T22:55:38.599Z,84.70
2018-11-02T22:58:09.182Z,84.80
2018-11-02T23:00:44.882Z,84.80
2018-11-02T23:03:15.581Z,84.70
2018-11-02T23:05:46.230Z,84.70
2018-11-02T23:08:18.462Z,84.80
2018-11-02T23:10:49.010Z,84.80
2018-11-02T23:13:19.733Z,84.60
2018-11-02T23:15:50.276Z,84.70
2018-11-02T23:18:20.914Z,85.60
2018-11-02T23:20:51.549Z,84.80
2018-11-02T23:23:22.047Z,85.00
2018-11-02T23:25:52.567Z,84.90
2018-11-02T23:28:23.347Z,85.00
2018-11-02T23:30:53.903Z,85.10
2018-11-02T23:33:24.489Z,85.10
2018-11-02T23:35:55.089Z,85.20
2018-11-02T23:38:25.655Z,85.40
2018-11-02T23:40:56.210Z,85.40
2018-11-02T23:43:27.120Z,86.30
2018-11-02T23:45:57.741Z,85.60
2018-11-02T23:48:28.450Z,85.60
2018-11-02T23:50:59.070Z,85.60
2018-11-02T23:53:30.016Z,85.50
2018-11-02T23:56:00.581Z,85.60
2018-11-02T23:58:31.249Z,85.70
